createdAt,value
2023-05-21T00:00:56.117Z,73.7
2023-05-21T00:02:18.299Z,73.5
2023-05-21T00:03:40.158Z,73.5
2023-05-21T00:05:14.893Z,73.1
2023-05-21T00:06:35.580Z,72.7
2023-05-21T00:08:03.795Z,72.2
2023-05-21T00:09:23.070Z,71.8
2023-05-21T00:10:42.771Z,71.3
2023-05-21T00:12:13.890Z,71.1
2023-05-21T00:13:39.376Z,70.7
2023-05-21T00:14:59.840Z,70.4
2023-05-21T00:16:20.746Z,70.2
2023-05-21T00:17:41.681Z,70.1
2023-05-21T00:18:59.490Z,69.9
2023-05-21T00:20:31.106Z,69.9
2023-05-21T00:21:57.613Z,69.8
2023-05-21T00:23:25.564Z,69.9
2023-05-21T00:24:55.548Z,69.8
2023-05-21T00:26:16.308Z,69.8
2023-05-21T00:27:35.271Z,69.7
2023-05-21T00:29:00.211Z,69.6
2023-05-21T00:30:22.741Z,69.8
2023-05-21T00:31:45.441Z,69.8
2023-05-21T00:33:08.237Z,70.1
2023-05-21T00:34:46.684Z,70.3
2023-05-21T00:36:08.143Z,70.3
2023-05-21T00:37:27.123Z,69.9
2023-05-21T00:38:55.263Z,69.7
2023-05-21T00:40:20.195Z,69.9
2023-05-21T00:41:43.281Z,70.1
2023-05-21T00:43:07.532Z,70
2023-05-21T00:44:28.907Z,70
2023-05-21T00:45:47.658Z,70
2023-05-21T00:47:09.985Z,69.8
2023-05-21T00:48:29.786Z,69.8
2023-05-21T00:49:54.268Z,70.1
2023-05-21T00:51:13.816Z,70.7
2023-05-21T00:52:43.960Z,71.6
2023-05-21T00:54:06.981Z,72.3
2023-05-21T00:55:30.038Z,73.1
2023-05-21T00:56:57.831Z,73.6
2023-05-21T00:58:21.492Z,73.8
2023-05-21T00:59:44.275Z,73.6
2023-05-21T01:01:09.733Z,73.2
2023-05-21T01:02:41.293Z,72.8
2023-05-21T01:04:10.271Z,72.4
2023-05-21T01:05:50.484Z,72
2023-05-21T01:07:11.289Z,71.8
2023-05-21T01:08:52.180Z,71.8
2023-05-21T01:10:20.995Z,71.6
2023-05-21T01:11:44.860Z,71.4
2023-05-21T01:13:24.235Z,71.4
2023-05-21T01:14:49.758Z,71.1
2023-05-21T01:16:10.991Z,71.1
2023-05-21T01:17:38.259Z,70.9
2023-05-21T01:19:02.566Z,70.8
2023-05-21T01:20:40.246Z,70.6
2023-05-21T01:22:04.270Z,70.4
2023-05-21T01:23:21.818Z,70.2
2023-05-21T01:24:48.432Z,70.1
2023-05-21T01:26:05.359Z,70.2
2023-05-21T01:27:29.543Z,70.4
2023-05-21T01:28:50.616Z,70.4
2023-05-21T01:30:18.535Z,70.4
2023-05-21T01:31:44.294Z,70.2
2023-05-21T01:33:25.269Z,70.1
2023-05-21T01:34:49.821Z,70
2023-05-21T01:36:16.560Z,69.9
2023-05-21T01:37:44.766Z,69.8
2023-05-21T01:39:01.551Z,69.5
2023-05-21T01:40:22.291Z,69.5
2023-05-21T01:41:41.753Z,69.6
2023-05-21T01:43:06.693Z,69.6
2023-05-21T01:44:24.816Z,69.7
2023-05-21T01:45:46.762Z,69.8
2023-05-21T01:47:08.582Z,69.8
2023-05-21T01:48:48.831Z,70.2
2023-05-21T01:50:05.540Z,70.9
2023-05-21T01:51:29.588Z,71.9
2023-05-21T01:52:47.079Z,72.6
2023-05-21T01:54:16.171Z,73.1
2023-05-21T01:55:41.839Z,73.4
2023-05-21T01:56:59.396Z,74
2023-05-21T01:58:20.404Z,73.9
2023-05-21T01:59:38.634Z,73.8
2023-05-21T02:01:08.999Z,73.5
2023-05-21T02:02:33.717Z,73.1
2023-05-21T02:04:08.280Z,72.7
2023-05-21T02:05:28.034Z,72.5
2023-05-21T02:06:48.318Z,72
2023-05-21T02:08:11.597Z,72
2023-05-21T02:09:34.837Z,72.2
2023-05-21T02:10:53.752Z,72.4
2023-05-21T02:12:17.832Z,72.4
2023-05-21T02:13:39.926Z,72.4
2023-05-21T02:15:10.080Z,72.4
2023-05-21T02:16:29.760Z,72.4
2023-05-21T02:17:52.580Z,72.4
2023-05-21T02:19:21.707Z,72.3
2023-05-21T02:20:49.622Z,72.3
2023-05-21T02:22:09.909Z,72.4
2023-05-21T02:23:28.210Z,72.7
2023-05-21T02:25:02.362Z,72.9
2023-05-21T02:26:28.829Z,73
2023-05-21T02:27:49.046Z,73.1
2023-05-21T02:29:16.236Z,73.2
2023-05-21T02:30:42.708Z,73.4
2023-05-21T02:32:14.750Z,73.5
2023-05-21T02:33:43.142Z,73.3
2023-05-21T02:35:05.045Z,73.2
2023-05-21T02:36:24.929Z,73.2
2023-05-21T02:37:47.138Z,73.4
2023-05-21T02:39:09.184Z,73.4
2023-05-21T02:40:37.818Z,73.6
2023-05-21T02:41:54.633Z,73.7
2023-05-21T02:43:16.115Z,73.8
2023-05-21T02:44:34.122Z,74.2
2023-05-21T02:46:10.110Z,74.2
2023-05-21T02:47:34.161Z,74.2
2023-05-21T02:49:10.850Z,74.7
2023-05-21T02:50:30.083Z,75.2
2023-05-21T02:52:04.634Z,75.9
2023-05-21T02:53:40.376Z,76.2
2023-05-21T02:55:02.409Z,76.6
2023-05-21T02:56:23.681Z,76.8
2023-05-21T02:57:45.895Z,76.9
2023-05-21T02:59:06.983Z,76.8
2023-05-21T03:00:28.488Z,76.6
2023-05-21T03:01:49.098Z,76
2023-05-21T03:03:09.094Z,75.7
2023-05-21T03:04:30.560Z,75.4
2023-05-21T03:05:55.867Z,75
2023-05-21T03:07:27.140Z,74.7
2023-05-21T03:08:53.635Z,74.7
2023-05-21T03:10:14.264Z,74.4
2023-05-21T03:11:42.437Z,74.1
2023-05-21T03:13:02.339Z,74
2023-05-21T03:14:20.722Z,73.8
2023-05-21T03:15:40.183Z,73.5
2023-05-21T03:17:00.248Z,73.1
2023-05-21T03:18:18.893Z,72.7
2023-05-21T03:19:44.336Z,72.6
2023-05-21T03:21:07.822Z,72.5
2023-05-21T03:22:30.206Z,72.4
2023-05-21T03:24:00.293Z,72.3
2023-05-21T03:25:28.846Z,72.3
2023-05-21T03:26:53.882Z,72.1
2023-05-21T03:28:24.550Z,71.9
2023-05-21T03:29:42.889Z,71.9
2023-05-21T03:31:09.254Z,71.6
2023-05-21T03:32:26.744Z,71.4
2023-05-21T03:33:56.855Z,71.3
2023-05-21T03:35:19.134Z,71.4
2023-05-21T03:36:37.874Z,71.6
2023-05-21T03:37:59.996Z,71.5
2023-05-21T03:39:32.428Z,71.4
2023-05-21T03:40:49.773Z,71.4
2023-05-21T03:42:13.003Z,71.4
2023-05-21T03:43:31.491Z,71.5
2023-05-21T03:44:58.857Z,71.3
2023-05-21T03:46:20.067Z,71.2
2023-05-21T03:47:40.543Z,71.2
2023-05-21T03:49:02.032Z,71.3
2023-05-21T03:50:25.210Z,71.2
2023-05-21T03:51:43.693Z,71.1
2023-05-21T03:54:32.993Z,70.6
2023-05-21T03:55:59.306Z,70.9
2023-05-21T03:57:27.170Z,71.3
2023-05-21T03:58:52.436Z,71.6
2023-05-21T04:00:22.947Z,72.1
2023-05-21T04:01:55.437Z,72.6
2023-05-21T04:03:18.305Z,72.5
2023-05-21T04:04:40.175Z,72
2023-05-21T04:06:04.195Z,71.4
2023-05-21T04:07:22.387Z,70.8
2023-05-21T04:08:44.821Z,70.4
2023-05-21T04:10:04.782Z,70.1
2023-05-21T04:11:24.971Z,69.9
2023-05-21T04:12:58.365Z,69.6
2023-05-21T04:14:15.851Z,69.1
2023-05-21T04:15:35.484Z,68.7
2023-05-21T04:16:58.059Z,68.5
2023-05-21T04:18:21.905Z,68.8
2023-05-21T04:19:44.092Z,68.9
2023-05-21T04:21:09.062Z,68.7
2023-05-21T04:22:28.806Z,68.4
2023-05-21T04:24:00.151Z,67.9
2023-05-21T04:25:21.118Z,67.6
2023-05-21T04:26:41.460Z,67.1
2023-05-21T04:27:58.749Z,66.7
2023-05-21T04:29:19.769Z,66.3
2023-05-21T04:30:38.176Z,65.8
2023-05-21T04:31:59.476Z,65.5
2023-05-21T04:33:18.877Z,65.2
2023-05-21T04:34:53.324Z,64.9
2023-05-21T04:36:11.181Z,64.7
2023-05-21T04:37:37.308Z,64.7
2023-05-21T04:39:04.938Z,64.5
2023-05-21T04:40:30.148Z,64.6
2023-05-21T04:41:54.822Z,64.8
2023-05-21T04:43:20.848Z,64.7
2023-05-21T04:44:43.058Z,64.6
2023-05-21T04:46:00.794Z,64.7
2023-05-21T04:47:23.611Z,64.5
2023-05-21T04:48:47.617Z,64.8
2023-05-21T04:50:10.722Z,64.9
2023-05-21T04:51:31.832Z,64.9
2023-05-21T04:53:06.280Z,64.5
2023-05-21T04:54:26.125Z,65.1
2023-05-21T04:55:46.302Z,65.6
2023-05-21T04:57:16.999Z,66.2
2023-05-21T04:58:37.175Z,67
2023-05-21T05:00:04.974Z,67.6
2023-05-21T05:01:33.462Z,68
2023-05-21T05:02:52.527Z,68
2023-05-21T05:04:10.581Z,68.5
2023-05-21T05:05:32.366Z,68.1
2023-05-21T05:06:53.521Z,67.8
2023-05-21T05:08:16.108Z,67.3
2023-05-21T05:09:34.179Z,67
2023-05-21T05:11:01.920Z,66.7
2023-05-21T05:12:33.974Z,66.3
2023-05-21T05:13:55.007Z,65.6
2023-05-21T05:15:16.262Z,65.2
2023-05-21T05:16:42.097Z,64.9
2023-05-21T05:18:02.424Z,64.5
2023-05-21T05:19:28.120Z,64.4
2023-05-21T05:20:50.397Z,63.6
2023-05-21T05:24:16.451Z,63
2023-05-21T05:25:37.380Z,62.7
2023-05-21T05:27:10.327Z,62.3
2023-05-21T05:28:42.454Z,62.3
2023-05-21T05:30:16.271Z,62.5
2023-05-21T05:31:38.812Z,62.6
2023-05-21T05:33:03.588Z,62
2023-05-21T05:34:24.201Z,61.5
2023-05-21T05:35:52.833Z,61.3
2023-05-21T05:37:30.005Z,61.2
2023-05-21T05:38:55.879Z,61.6
2023-05-21T05:40:18.625Z,61.9
2023-05-21T05:41:49.984Z,61.6
2023-05-21T05:43:21.308Z,61.4
2023-05-21T05:44:46.907Z,61.6
2023-05-21T05:47:33.844Z,61.3
2023-05-21T05:48:57.716Z,61.6
2023-05-21T05:50:21.263Z,61.9
2023-05-21T05:51:43.286Z,62.1
2023-05-21T05:53:05.259Z,61.9
2023-05-21T05:54:35.731Z,61.7
2023-05-21T05:55:55.563Z,61.5
2023-05-21T05:57:34.886Z,61.9
2023-05-21T05:59:05.830Z,62.3
2023-05-21T06:00:29.703Z,62.8
2023-05-21T06:01:52.236Z,63.5
2023-05-21T06:03:13.458Z,63.4
2023-05-21T06:04:42.335Z,63.1
2023-05-21T06:06:05.584Z,63
2023-05-21T06:07:38.884Z,63
2023-05-21T06:09:00.014Z,63
2023-05-21T06:10:22.696Z,63
2023-05-21T06:11:48.445Z,62.7
2023-05-21T06:13:06.952Z,62.2
2023-05-21T06:14:33.022Z,61.3
2023-05-21T06:15:54.035Z,60.7
2023-05-21T06:17:16.398Z,60.3
2023-05-21T06:18:34.140Z,60.1
2023-05-21T06:19:51.298Z,60
2023-05-21T06:21:08.950Z,59.6
2023-05-21T06:22:30.924Z,58.8
2023-05-21T06:23:56.566Z,58.5
2023-05-21T06:25:26.780Z,58.5
2023-05-21T06:26:53.271Z,58.3
2023-05-21T06:28:12.333Z,58
2023-05-21T06:29:35.063Z,57.2
2023-05-21T06:31:03.306Z,56.6
2023-05-21T06:32:28.788Z,56.1
2023-05-21T06:33:59.955Z,56
2023-05-21T06:35:33.520Z,55.5
2023-05-21T06:37:03.928Z,54.9
2023-05-21T06:38:26.123Z,55.2
2023-05-21T06:39:48.146Z,55.2
2023-05-21T06:41:15.331Z,55.7
2023-05-21T06:42:55.304Z,55.9
2023-05-21T06:44:16.260Z,55.9
2023-05-21T06:45:38.537Z,55.7
2023-05-21T06:47:03.289Z,54.7
2023-05-21T06:48:35.455Z,54.1
2023-05-21T06:49:58.450Z,53.2
2023-05-21T06:51:16.104Z,51.8
2023-05-21T06:52:37.010Z,50.8
2023-05-21T06:53:59.916Z,49.8
2023-05-21T06:55:26.099Z,49
2023-05-21T06:56:44.549Z,48
2023-05-21T06:58:12.781Z,47
2023-05-21T06:59:40.022Z,46.6
2023-05-21T07:01:09.869Z,47.2
2023-05-21T07:02:42.645Z,47.7
2023-05-21T07:04:07.454Z,48.1
2023-05-21T07:05:31.982Z,48.8
2023-05-21T07:06:59.931Z,49.4
2023-05-21T07:08:20.260Z,49.1
2023-05-21T07:09:49.272Z,48.4
2023-05-21T07:11:07.680Z,48.5
2023-05-21T07:12:30.100Z,49
2023-05-21T07:13:52.331Z,48.5
2023-05-21T07:15:12.339Z,48.3
2023-05-21T07:16:29.561Z,47.7
2023-05-21T07:17:52.814Z,47
2023-05-21T07:19:16.637Z,46.2
2023-05-21T07:20:44.114Z,45.6
2023-05-21T07:22:01.409Z,44.2
2023-05-21T07:23:20.449Z,43.6
2023-05-21T07:24:40.407Z,43.5
2023-05-21T07:26:01.235Z,42.6
2023-05-21T07:27:31.224Z,42.7
2023-05-21T07:28:59.030Z,42.3
2023-05-21T07:30:28.299Z,42.2
2023-05-21T07:31:50.230Z,42.8
2023-05-21T07:33:08.903Z,42.7
2023-05-21T07:34:31.433Z,41.4
2023-05-21T07:35:48.503Z,40.1
2023-05-21T07:37:17.936Z,39.5
2023-05-21T07:38:46.090Z,40
2023-05-21T07:40:14.210Z,39.8
2023-05-21T07:41:32.395Z,40.4
2023-05-21T07:43:10.556Z,40.1
2023-05-21T07:44:29.538Z,39.6
2023-05-21T07:45:55.590Z,40.4
2023-05-21T07:47:26.200Z,41.3
2023-05-21T07:48:49.204Z,41.4
2023-05-21T07:50:09.424Z,41.4
2023-05-21T07:51:37.441Z,41.7
2023-05-21T07:53:06.277Z,41.7
2023-05-21T07:54:31.306Z,41.5
2023-05-21T07:55:57.414Z,41.6
2023-05-21T07:57:27.156Z,41.6
2023-05-21T07:59:03.382Z,41.6
2023-05-21T08:00:23.004Z,40.9
2023-05-21T08:01:50.548Z,40.3
2023-05-21T08:03:15.376Z,39.9
2023-05-21T08:04:41.232Z,40.3
2023-05-21T08:06:15.388Z,41.6
2023-05-21T08:07:36.601Z,41.4
2023-05-21T08:08:57.593Z,41.9
2023-05-21T08:10:20.350Z,42
2023-05-21T08:11:41.583Z,41.5
2023-05-21T08:13:02.584Z,40.3
2023-05-21T08:14:31.334Z,40.3
2023-05-21T08:15:53.240Z,39.9
2023-05-21T08:17:27.530Z,39.5
2023-05-21T08:18:44.724Z,38.9
2023-05-21T08:20:15.108Z,38.1
2023-05-21T08:21:35.362Z,37.5
2023-05-21T08:22:57.053Z,37.6
2023-05-21T08:24:19.186Z,37.4
2023-05-21T08:25:44.040Z,37.7
2023-05-21T08:28:31.769Z,37.7
2023-05-21T08:29:53.688Z,38
2023-05-21T08:31:12.426Z,37.5
2023-05-21T08:32:38.366Z,36.6
2023-05-21T08:33:59.180Z,37.1
2023-05-21T08:35:32.035Z,36.8
2023-05-21T08:36:51.955Z,36.1
2023-05-21T08:38:12.797Z,35.7
2023-05-21T08:39:36.807Z,35.1
2023-05-21T08:40:58.602Z,34.7
2023-05-21T08:42:22.717Z,35.7
2023-05-21T08:43:52.006Z,36
2023-05-21T08:45:11.118Z,36.8
2023-05-21T08:46:34.107Z,37.2
2023-05-21T08:49:21.969Z,37.5
2023-05-21T08:50:43.636Z,38.3
2023-05-21T08:52:08.567Z,38.2
2023-05-21T08:53:29.288Z,38.5
2023-05-21T08:54:45.624Z,38.2
2023-05-21T08:56:07.091Z,37.7
2023-05-21T08:57:25.632Z,36.6
2023-05-21T08:58:51.048Z,36
2023-05-21T09:00:12.782Z,35.2
2023-05-21T09:01:30.992Z,34.8
2023-05-21T09:02:49.110Z,34.7
2023-05-21T09:04:20.020Z,35
2023-05-21T09:05:32.554Z,35.2
2023-05-21T09:06:54.754Z,35.6
2023-05-21T09:08:11.787Z,35.9
2023-05-21T09:09:37.176Z,36.6
2023-05-21T09:11:05.817Z,36.9
2023-05-21T09:12:25.639Z,36.5
2023-05-21T09:13:51.057Z,35.9
2023-05-21T09:15:08.632Z,36.3
2023-05-21T09:16:27.701Z,36.5
2023-05-21T09:17:46.732Z,37.1
2023-05-21T09:19:07.174Z,38.3
2023-05-21T09:20:30.209Z,38.4
2023-05-21T09:21:53.376Z,38.4
2023-05-21T09:23:17.809Z,37.5
2023-05-21T09:24:42.286Z,37.2
2023-05-21T09:26:00.307Z,37.3
2023-05-21T09:27:25.325Z,36.9
2023-05-21T09:29:03.161Z,36.9
2023-05-21T09:30:39.480Z,36.3
2023-05-21T09:32:02.545Z,36.3
2023-05-21T09:33:21.878Z,36.1
2023-05-21T09:34:40.762Z,35.9
2023-05-21T09:36:06.531Z,35.3
2023-05-21T09:37:44.559Z,35.1
2023-05-21T09:39:10.136Z,35.2
2023-05-21T09:40:30.417Z,35.1
2023-05-21T09:41:54.757Z,36
2023-05-21T09:43:20.918Z,37
2023-05-21T09:44:43.420Z,37.3
2023-05-21T09:46:08.814Z,36.6
2023-05-21T09:47:26.101Z,37.1
2023-05-21T09:48:49.417Z,37.7
2023-05-21T09:50:23.489Z,37.2
2023-05-21T09:51:42.191Z,36.1
2023-05-21T09:53:10.535Z,35.7
2023-05-21T09:54:31.867Z,35.3
2023-05-21T09:56:08.448Z,35.1
2023-05-21T09:57:32.572Z,35.2
2023-05-21T09:58:52.824Z,35.7
2023-05-21T10:00:08.728Z,35.6
2023-05-21T10:01:28.896Z,34.9
2023-05-21T10:02:51.984Z,34.4
